Hauptseite
METAR-TAF:

METAR-TAF

Flughäfen :

Flughafen Braunschweig-Wolfsburg

Braunschweig, Deutschland

Breite: 52-18N, Länge: 010-27E, Höhe: 81 m

Beobachtung

Neuester Wetterbericht von vor 6 Stunden und 59 Minuten, um 19:50 UTC
Wind 1 kt aus unterschiedlichen Richtungen
Temperatur 23°C
Luftfeuchtigkeit 41%
Luftdruck 1012 hPa
Sichtweite 10 km oder mehr
keine Wolken unter 1500 m und keine Kumulonimbus oder Gewitterwolken

METAR: EDVE 171950Z VRB01KT CAVOK 23/09 Q1012

Zeit: 04:49 (02:49 UTC)

Prognose

Neuester Wetterbericht von vor 7 Stunden und 19 Minuten, um 19:30 UTC
Gültige Prognose vom 17 um 19 UTC bis 17 um 21 UTC
Wind 8 kt aus West/Nordwest
Sichtweite 10 km oder mehr
keine Wolken unter 1500 m und keine Kumulonimbus oder Gewitterwolken
Übergehend zu
vom 17 um 19 UTC bis 17 um 21 UTC
Wind 3 kt aus unterschiedlichen Richtungen

TAF: EDVE 171930Z 1719/1721 30008KT CAVOK BECMG 1719/1721 VRB03KT

Wetterbeobachtungen und Prognosen von mehr als 4000 Flughäfen (METAR und TAF Bericht).

Die verfügbaren Stationen werden durch gelbe und rote Markierungen auf der Karte dargestellt.

Führen Sie die Maus auf sie, um den Namen der Station zu sehen.

Darauf klicken, um die Beobachtung von Wetterbeobachtungen und Prognosen zu sehen.

Um die Karte zu ändern : klicken Sie auf den grünen Tasten mit einem schwarzen Kreuz Zum Vergrößern, auf den grünen Button mit einem Gedankenstrich zu verkleinern, oder auf die grünen Pfeile für benachbarte Karten.


METAR-TAF: